createdAt,value
2023-05-22T00:00:55.370Z,100693.88
2023-05-22T00:05:59.319Z,100681.19
2023-05-22T00:11:02.397Z,100683.91
2023-05-22T00:16:05.770Z,100683.75
2023-05-22T00:21:09.711Z,100690.28
2023-05-22T00:26:17.030Z,100692.41
2023-05-22T00:31:19.882Z,100699.91
2023-05-22T00:36:24.110Z,100709.38
2023-05-22T00:41:27.273Z,100714.59
2023-05-22T00:46:30.465Z,100704.13
2023-05-22T00:51:33.912Z,100714.34
2023-05-22T00:56:36.994Z,100716.84
2023-05-22T01:01:42.607Z,100715.69
2023-05-22T01:06:47.021Z,100719.09
2023-05-22T01:12:19.218Z,100708.13
2023-05-22T01:17:29.054Z,100728.13
2023-05-22T01:22:39.079Z,100737.84
2023-05-22T01:28:08.164Z,100736.31
2023-05-22T01:33:15.309Z,100739.78
2023-05-22T01:38:19.047Z,100746.00
2023-05-22T01:43:22.171Z,100742.81
2023-05-22T01:48:25.214Z,100741.34
2023-05-22T01:53:35.168Z,100742.34
2023-05-22T01:58:50.389Z,100740.88
2023-05-22T02:03:57.143Z,100739.34
2023-05-22T02:09:01.888Z,100744.56
2023-05-22T02:14:06.713Z,100753.28
2023-05-22T02:19:09.712Z,100749.06
2023-05-22T02:24:33.128Z,100752.63
2023-05-22T02:29:36.766Z,100764.78
2023-05-22T02:34:39.735Z,100759.66
2023-05-22T02:39:42.850Z,100763.13
2023-05-22T02:44:46.217Z,100760.59
2023-05-22T02:49:49.276Z,100751.09
2023-05-22T02:54:52.288Z,100753.69
2023-05-22T02:59:57.969Z,100753.66
2023-05-22T03:05:00.967Z,100744.97
2023-05-22T03:10:05.420Z,100746.59
2023-05-22T03:15:09.246Z,100756.00
2023-05-22T03:20:17.361Z,100757.66
2023-05-22T03:25:22.450Z,100754.13
2023-05-22T03:30:25.633Z,100753.13
2023-05-22T03:35:48.924Z,100746.00
2023-05-22T03:40:52.054Z,100744.06
2023-05-22T03:45:55.450Z,100742.16
2023-05-22T03:50:58.770Z,100748.88
2023-05-22T03:56:01.752Z,100747.94
2023-05-22T04:01:04.854Z,100744.38
2023-05-22T04:06:08.045Z,100754.66
2023-05-22T04:11:11.568Z,100744.16
2023-05-22T04:16:17.944Z,100739.72
2023-05-22T04:21:21.055Z,100744.78
2023-05-22T04:26:24.978Z,100735.25
2023-05-22T04:31:28.148Z,100736.72
2023-05-22T04:36:31.577Z,100741.78
2023-05-22T04:41:34.689Z,100733.09
2023-05-22T04:46:37.993Z,100736.38
2023-05-22T04:51:41.225Z,100739.63
2023-05-22T04:56:44.311Z,100719.66
2023-05-22T05:01:48.401Z,100730.94
2023-05-22T05:06:53.320Z,100737.72
2023-05-22T05:11:56.555Z,100715.84
2023-05-22T05:17:00.742Z,100718.34
2023-05-22T05:22:03.985Z,100727.00
2023-05-22T05:27:07.430Z,100722.72
2023-05-22T05:32:13.414Z,100727.78
2023-05-22T05:37:27.108Z,100724.13
2023-05-22T05:42:33.332Z,100721.41
2023-05-22T05:47:38.459Z,100723.03
2023-05-22T05:52:41.644Z,100719.34
2023-05-22T05:57:49.192Z,100729.72
2023-05-22T06:03:00.062Z,100701.38
2023-05-22T06:08:23.499Z,100701.44
2023-05-22T06:13:26.989Z,100701.34
2023-05-22T06:18:29.965Z,100696.75
2023-05-22T06:23:33.739Z,100702.94
2023-05-22T06:28:36.840Z,100708.94
2023-05-22T06:33:41.056Z,100698.34
2023-05-22T06:38:44.152Z,100698.47
2023-05-22T06:44:02.988Z,100694.28
2023-05-22T06:49:06.710Z,100688.97
2023-05-22T06:54:21.649Z,100721.91
2023-05-22T06:59:30.076Z,100715.09
2023-05-22T07:04:42.163Z,100689.25
2023-05-22T07:09:49.560Z,100685.31
2023-05-22T07:14:54.646Z,100686.25
2023-05-22T07:19:59.700Z,100699.28
2023-05-22T07:25:05.693Z,100695.72
2023-05-22T07:30:10.381Z,100689.81
2023-05-22T07:35:15.625Z,100680.34
2023-05-22T07:40:18.641Z,100676.66
2023-05-22T07:45:22.295Z,100684.28
2023-05-22T07:50:27.405Z,100688.44
2023-05-22T07:55:30.606Z,100685.09
2023-05-22T08:00:33.778Z,100675.44
2023-05-22T08:05:36.954Z,100682.19
2023-05-22T08:15:46.515Z,100695.13
2023-05-22T08:20:49.529Z,100692.41
2023-05-22T08:25:52.469Z,100704.78
2023-05-22T08:30:55.765Z,100687.31
2023-05-22T08:35:58.738Z,100687.16
2023-05-22T08:41:02.053Z,100680.28
2023-05-22T08:46:06.496Z,100688.47
2023-05-22T08:51:11.394Z,100687.56
2023-05-22T08:56:14.473Z,100679.25
2023-05-22T09:01:17.994Z,100682.81
2023-05-22T09:06:21.015Z,100682.59
2023-05-22T09:11:26.693Z,100686.16
2023-05-22T09:16:30.169Z,100680.09
2023-05-22T09:21:33.349Z,100678.13
2023-05-22T09:26:39.422Z,100698.06
2023-05-22T09:31:44.345Z,100699.31
2023-05-22T09:36:50.428Z,100684.69
2023-05-22T09:41:53.436Z,100691.78
2023-05-22T09:46:57.253Z,100681.16
2023-05-22T09:52:03.427Z,100694.97
2023-05-22T09:57:07.528Z,100702.84
2023-05-22T10:02:11.362Z,100687.19
2023-05-22T10:07:14.644Z,100697.91
2023-05-22T10:12:20.643Z,100698.75
2023-05-22T10:17:23.940Z,100702.41
2023-05-22T10:22:28.373Z,100712.47
2023-05-22T10:27:31.391Z,100706.41
2023-05-22T10:32:48.932Z,100708.41
2023-05-22T10:37:55.906Z,100710.13
2023-05-22T10:43:03.167Z,100704.28
2023-05-22T10:48:10.440Z,100704.25
2023-05-22T10:53:28.346Z,100715.00
2023-05-22T10:58:32.601Z,100709.06
2023-05-22T11:04:00.995Z,100693.34
2023-05-22T11:09:29.599Z,100704.50
2023-05-22T11:14:32.578Z,100692.94
2023-05-22T11:19:35.635Z,100695.41
2023-05-22T11:24:38.889Z,100692.19
2023-05-22T11:29:44.886Z,100725.34
2023-05-22T11:34:50.610Z,100724.50
2023-05-22T11:39:58.178Z,100713.88
2023-05-22T11:45:01.782Z,100702.19
2023-05-22T11:50:12.220Z,100707.09
2023-05-22T11:55:15.216Z,100712.75
2023-05-22T12:00:18.869Z,100723.31
2023-05-22T12:05:22.449Z,100710.47
2023-05-22T12:10:26.595Z,100728.75
2023-05-22T12:15:29.636Z,100722.59
2023-05-22T12:20:32.954Z,100733.81
2023-05-22T12:25:39.559Z,100726.25
2023-05-22T12:30:43.111Z,100749.31
2023-05-22T12:35:46.031Z,100742.88
2023-05-22T12:40:50.154Z,100744.53
2023-05-22T12:45:53.568Z,100748.41
2023-05-22T12:50:56.552Z,100738.03
2023-05-22T12:55:59.539Z,100737.13
2023-05-22T13:01:02.557Z,100731.97
2023-05-22T13:06:05.564Z,100740.84
2023-05-22T13:11:08.609Z,100744.53
2023-05-22T13:16:13.006Z,100749.38
2023-05-22T13:21:16.608Z,100754.97
2023-05-22T13:26:19.540Z,100756.13
2023-05-22T13:31:22.651Z,100747.53
2023-05-22T13:36:25.563Z,100754.66
2023-05-22T13:41:28.770Z,100753.59
2023-05-22T13:46:31.743Z,100752.09
2023-05-22T13:51:34.963Z,100762.22
2023-05-22T13:56:37.950Z,100749.69
2023-05-22T14:01:40.945Z,100767.03
2023-05-22T14:06:44.270Z,100765.28
2023-05-22T14:11:47.453Z,100775.66
2023-05-22T14:16:54.162Z,100771.31
2023-05-22T14:21:57.090Z,100784.28
2023-05-22T14:27:00.072Z,100782.88
2023-05-22T14:32:04.814Z,100786.44
2023-05-22T14:37:08.059Z,100788.16
2023-05-22T14:42:11.385Z,100791.56
2023-05-22T14:47:14.345Z,100800.13
2023-05-22T14:52:17.248Z,100793.19
2023-05-22T14:57:20.209Z,100812.84
2023-05-22T15:02:24.842Z,100812.75
2023-05-22T15:07:35.982Z,100823.75
2023-05-22T15:12:46.610Z,100832.06
2023-05-22T15:17:49.673Z,100833.53
2023-05-22T15:22:52.708Z,100839.06
2023-05-22T15:27:55.885Z,100836.97
2023-05-22T15:33:03.876Z,100847.84
2023-05-22T15:38:07.288Z,100850.03
2023-05-22T15:43:10.870Z,100844.19
2023-05-22T15:48:13.850Z,100848.44
2023-05-22T15:53:16.966Z,100850.63
2023-05-22T15:58:19.920Z,100859.19
2023-05-22T16:03:22.860Z,100858.22
2023-05-22T16:08:26.016Z,100864.91
2023-05-22T16:13:28.992Z,100869.44
2023-05-22T16:18:32.342Z,100860.88
2023-05-22T16:23:35.511Z,100864.88
2023-05-22T16:28:38.514Z,100861.50
2023-05-22T16:33:41.686Z,100868.34
2023-05-22T16:38:44.596Z,100872.00
2023-05-22T16:43:47.601Z,100877.97
2023-05-22T16:48:50.933Z,100878.00
2023-05-22T16:53:53.969Z,100887.09
2023-05-22T16:58:56.893Z,100879.16
2023-05-22T17:03:59.906Z,100888.31
2023-05-22T17:09:02.938Z,100889.88
2023-05-22T17:14:06.164Z,100894.88
2023-05-22T17:19:09.114Z,100892.78
2023-05-22T17:24:14.937Z,100898.84
2023-05-22T17:29:17.931Z,100902.78
2023-05-22T17:34:20.848Z,100903.09
2023-05-22T17:39:24.636Z,100901.25
2023-05-22T17:44:27.733Z,100909.22
2023-05-22T17:49:30.873Z,100900.44
2023-05-22T17:54:35.160Z,100900.91
2023-05-22T17:59:40.422Z,100904.75
2023-05-22T18:04:43.602Z,100909.53
2023-05-22T18:09:46.611Z,100905.72
2023-05-22T18:14:49.566Z,100900.06
2023-05-22T18:19:52.750Z,100909.97
2023-05-22T18:24:55.791Z,100909.25
2023-05-22T18:29:58.757Z,100917.28
2023-05-22T18:35:05.715Z,100912.72
2023-05-22T18:40:09.803Z,100927.53
2023-05-22T18:45:13.061Z,100919.47
2023-05-22T18:50:16.328Z,100919.28
2023-05-22T18:55:19.215Z,100913.91
2023-05-22T19:00:23.673Z,100911.44
2023-05-22T19:05:26.691Z,100920.28
2023-05-22T19:10:29.626Z,100916.25
2023-05-22T19:15:34.708Z,100927.56
2023-05-22T19:20:37.955Z,100923.69
2023-05-22T19:25:41.110Z,100928.00
2023-05-22T19:30:44.507Z,100937.88
2023-05-22T19:35:47.719Z,100931.25
2023-05-22T19:40:50.803Z,100927.09
2023-05-22T19:45:54.692Z,100931.09
2023-05-22T19:50:57.552Z,100932.66
2023-05-22T19:56:03.070Z,100931.78
2023-05-22T20:01:06.246Z,100930.66
2023-05-22T20:06:09.140Z,100934.50
2023-05-22T20:11:12.158Z,100937.03
2023-05-22T20:16:16.247Z,100942.03
2023-05-22T20:21:19.617Z,100947.56
2023-05-22T20:26:22.796Z,100941.00
2023-05-22T20:31:26.264Z,100956.28
2023-05-22T20:36:29.173Z,100949.56
2023-05-22T20:41:32.146Z,100963.09
2023-05-22T20:46:35.364Z,100954.28
2023-05-22T20:51:39.780Z,100954.69
2023-05-22T20:56:43.046Z,100965.31
2023-05-22T21:01:47.244Z,100960.81
2023-05-22T21:06:50.142Z,100964.28
2023-05-22T21:11:53.073Z,100957.88
2023-05-22T21:16:56.199Z,100957.91
2023-05-22T21:21:59.335Z,100950.69
2023-05-22T21:27:02.273Z,100963.59
2023-05-22T21:32:05.854Z,100973.50
2023-05-22T21:37:09.542Z,100964.19
2023-05-22T21:42:12.382Z,100958.56
2023-05-22T21:47:15.602Z,100974.38
2023-05-22T21:52:18.516Z,100969.88
2023-05-22T21:57:21.973Z,100971.63
2023-05-22T22:02:25.072Z,100976.53
2023-05-22T22:07:28.046Z,100980.31
2023-05-22T22:12:31.432Z,100987.22
2023-05-22T22:17:35.139Z,101001.72
2023-05-22T22:22:38.188Z,100991.63
2023-05-22T22:27:41.223Z,100996.25
2023-05-22T22:32:44.552Z,100999.25
2023-05-22T22:37:48.755Z,101007.66
2023-05-22T22:42:52.403Z,101011.94
2023-05-22T22:47:56.793Z,101017.28
2023-05-22T22:53:00.291Z,101022.66
2023-05-22T22:58:03.405Z,101033.13
2023-05-22T23:03:06.472Z,101027.25
2023-05-22T23:08:09.391Z,101029.81
2023-05-22T23:13:12.309Z,101043.59
2023-05-22T23:18:15.691Z,101035.50
2023-05-22T23:23:18.608Z,101035.94
2023-05-22T23:28:21.707Z,101038.16
2023-05-22T23:33:25.066Z,101036.44
2023-05-22T23:38:28.298Z,101034.34
2023-05-22T23:43:31.648Z,101037.28
2023-05-22T23:48:34.571Z,101043.03
2023-05-22T23:53:37.622Z,101051.09
2023-05-22T23:58:40.564Z,101058.53
